ENZV METAR and TAF | Updated Today

ENZV METAR

Stavanger Airport Sola

Observation time: 26 min. ago

ENZV 070750Z 13020KT CAVOK 03/M03 Q1003 NOSIG

Need help? Read our tutorial on how to read METARs or read the parsed version below.

Stavanger Airport Sola (ENZV) METAR

  • Weather conditions on Tue, 07 Dec 2021 07:50:00 +0000 (26 min. ago):
  • Present conditions: Dry
  • Clouds: Clear skies
  • Visibility: Greater than 10 km
  • Wind: 130 degrees at 20 knots
  • Temperature: 3 celsius
  • Dew point: -3 celsius
  • Pressure: 1003 millibars
  • Remarks: None


Useful to know...

ENZV TAF

Stavanger Airport Sola

TAF ENZV 0706/0806 13022G32KT 9999 FEW030 BKN090 BECMG 0712/0714 12015KT BECMG 0722/0724 12025G35KT
Observation time:
Need help? Read our tutorial on how to read TAFs or read the parsed version below.

Parsed version of TAF for Stavanger Airport Sola (ENZV)

  • From 07 December at 06:00 UTC, to day 08 of the month at 06:00 UTC
  • Clouds: A few at 914 meters; broken sky at 2743 meters
  • Visibility: Greater than 10 km
  • Wind: 130 degrees at 22
  • Expected to arise soon, from 07 December at 12:00 UTC, to day 07 of the month at 14:00 UTC
  • Wind: 120 degrees at 15
  • Expected to arise soon, from 07 December at 22:00 UTC, to day 07 of the month at 24:00 UTC
  • Wind: 120 degrees at 25